Time;durP1;ratioP1;P1;durP2;ratioP2;P2;SDS_P1;SDS_P2;PMS_P1;PMS_P2;Temp;Humidity;BMP_temperature;BMP_pressure;BME280_temperature;BME280_humidity;BME280_pressure;Samples;Min_cycle;Max_cycle;Signal;HPM_P1;HPM_P2
2023/10/28 00:01:55;;;;;;;;;;;;;;;10.28;97.84;99168.00;4192029;28;20434;-67
2023/10/28 00:03:58;;;;;;;;;;;;;;;10.28;97.53;99170.72;4193996;28;20501;-67
2023/10/28 00:06:01;;;;;;;;;;;;;;;10.29;97.82;99175.03;4195241;28;20032;-67
2023/10/28 00:08:03;;;;;;;;;;;;;;;10.29;97.66;99177.75;4195436;28;20363;-67
2023/10/28 00:10:07;;;;;;;;;;;;;;;10.31;97.67;99187.50;4193867;28;20031;-67
2023/10/28 00:12:08;;;;;;;;;;;;;;;10.31;97.67;99182.91;4193541;28;20534;-67
2023/10/28 00:14:10;;;;;;;;;;;;;;;10.31;97.53;99176.72;4195404;28;19928;-67
2023/10/28 00:16:12;;;;;;;;;;;;;;;10.29;97.44;99163.44;4195446;28;20012;-67
2023/10/28 00:18:15;;;;;;;;;;;;;;;10.30;97.60;99167.78;4194357;28;20668;-67
2023/10/28 00:20:18;;;;;;;;;;;;;;;10.31;97.47;99172.13;4193570;28;20008;-67
2023/10/28 00:22:21;;;;;;;;;;;;;;;10.31;97.98;99179.41;4192995;28;20454;-67
2023/10/28 00:24:22;;;;;;;;;;;;;;;10.30;97.79;99175.88;4194663;28;19938;-67
2023/10/28 00:26:24;;;;;;;;;;;;;;;10.31;97.93;99176.72;4194287;28;19932;-67
2023/10/28 00:28:27;;;;;;;;;;;;;;;10.29;97.92;99185.84;4193748;28;20027;-67
2023/10/28 00:30:29;;;;;;;;;;;;;;;10.31;98.14;99174.81;4193058;28;20023;-67
2023/10/28 00:32:32;;;;;;;;;;;;;;;10.29;97.84;99172.34;4192609;28;20015;-67
2023/10/28 00:34:35;;;;;;;;;;;;;;;10.29;98.17;99169.63;4193694;28;20015;-67
2023/10/28 00:36:37;;;;;;;;;;;;;;;10.29;98.17;99169.63;4194872;28;20012;-67
2023/10/28 00:38:39;;;;;;;;;;;;;;;10.29;98.20;99176.91;4194764;28;20450;-67
2023/10/28 00:40:42;;;;;;;;;;;;;;;10.30;98.29;99175.88;4193527;28;20027;-67
2023/10/28 00:42:45;;;;;;;;;;;;;;;10.29;98.17;99185.84;4193364;28;20024;-67
2023/10/28 00:44:47;;;;;;;;;;;;;;;10.29;98.27;99183.13;4181264;28;19928;-67
2023/10/28 00:46:49;;;;;;;;;;;;;;;10.31;98.09;99176.72;4194755;28;20039;-67
2023/10/28 00:48:53;;;;;;;;;;;;;;;10.31;98.28;99190.19;4192069;28;20055;-67
2023/10/28 00:50:57;;;;;;;;;;;;;;;10.31;98.11;99182.91;4192814;28;20471;-67
2023/10/28 00:53:00;;;;;;;;;;;;;;;10.28;98.16;99178.81;4193830;28;20015;-67
2023/10/28 00:55:02;;;;;;;;;;;;;;;10.28;97.98;99177.94;4185398;28;20027;-67
2023/10/28 00:57:05;;;;;;;;;;;;;;;10.28;98.09;99181.50;4184507;28;20007;-67
2023/10/28 00:59:08;;;;;;;;;;;;;;;10.29;98.08;99168.81;4192883;28;19933;-67
2023/10/28 01:01:10;;;;;;;;;;;;;;;10.28;97.86;99177.94;4190640;28;20492;-67
2023/10/28 01:03:13;;;;;;;;;;;;;;;10.28;98.14;99170.72;4193188;28;19970;-67
2023/10/28 01:05:17;;;;;;;;;;;;;;;10.29;97.82;99179.63;4193462;28;19924;-67
2023/10/28 01:07:20;;;;;;;;;;;;;;;10.31;98.08;99172.13;4192884;28;20466;-67
2023/10/28 01:09:22;;;;;;;;;;;;;;;10.31;98.15;99169.44;4192847;28;20031;-68
2023/10/28 01:11:25;;;;;;;;;;;;;;;10.30;97.87;99170.50;4192352;28;20019;-67
2023/10/28 01:13:27;;;;;;;;;;;;;;;10.29;97.92;99166.13;4193103;28;20483;-67
2023/10/28 01:15:29;;;;;;;;;;;;;;;10.28;98.41;99169.84;4193939;28;20022;-67
2023/10/28 01:17:32;;;;;;;;;;;;;;;10.28;98.38;99173.41;4193639;28;20031;-67
2023/10/28 01:19:34;;;;;;;;;;;;;;;10.28;98.50;99172.56;4193443;28;20432;-67
2023/10/28 01:21:40;;;;;;;;;;;;;;;10.28;98.16;99170.72;4192144;28;20011;-67
2023/10/28 01:23:42;;;;;;;;;;;;;;;10.28;98.26;99170.72;4192602;28;20495;-67
2023/10/28 01:25:44;;;;;;;;;;;;;;;10.27;98.73;99169.03;4193379;28;19963;-67
2023/10/28 01:27:45;;;;;;;;;;;;;;;10.28;98.63;99165.31;4193542;28;20398;-67
2023/10/28 01:29:47;;;;;;;;;;;;;;;10.27;98.67;99166.34;4192458;28;20441;-67
2023/10/28 01:31:49;;;;;;;;;;;;;;;10.28;98.45;99172.56;4192687;28;20012;-68
2023/10/28 01:33:51;;;;;;;;;;;;;;;10.27;98.57;99170.91;4193027;28;20011;-67
2023/10/28 01:35:53;;;;;;;;;;;;;;;10.28;98.34;99169.84;4193286;28;20031;-67
2023/10/28 01:37:57;;;;;;;;;;;;;;;10.28;98.55;99167.16;4193495;28;20023;-67
2023/10/28 01:39:59;;;;;;;;;;;;;;;10.27;98.66;99163.63;4193201;28;20037;-67
2023/10/28 01:42:04;;;;;;;;;;;;;;;10.26;98.77;99166.56;4192756;28;20020;-67
2023/10/28 01:44:06;;;;;;;;;;;;;;;10.25;98.57;99168.44;4193017;28;20453;-67
2023/10/28 01:46:09;;;;;;;;;;;;;;;10.25;98.74;99162.19;4193910;28;19932;-67
2023/10/28 01:48:12;;;;;;;;;;;;;;;10.26;98.63;99166.56;4192870;28;20018;-67
2023/10/28 01:50:14;;;;;;;;;;;;;;;10.27;98.79;99170.91;4193177;28;20019;-67
2023/10/28 01:52:16;;;;;;;;;;;;;;;10.25;98.63;99173.81;4192250;28;20031;-67
2023/10/28 01:54:19;;;;;;;;;;;;;;;10.25;98.92;99163.03;4193904;28;20011;-67
2023/10/28 01:56:21;;;;;;;;;;;;;;;10.22;98.97;99160.75;4193639;28;20020;-67
2023/10/28 01:58:22;;;;;;;;;;;;;;;10.23;98.95;99166.97;4184350;28;20027;-67
2023/10/28 02:00:26;;;;;;;;;;;;;;;10.25;98.67;99167.59;4190382;28;19935;-67
2023/10/28 02:02:31;;;;;;;;;;;;;;;10.26;98.62;99163.84;4191817;28;20551;-67
2023/10/28 02:04:33;;;;;;;;;;;;;;;10.26;98.93;99161.97;4192524;28;20036;-67
2023/10/28 02:06:35;;;;;;;;;;;;;;;10.26;98.64;99161.16;4192378;28;20349;-67
2023/10/28 02:08:37;;;;;;;;;;;;;;;10.26;98.79;99171.94;4191352;28;20035;-67
2023/10/28 02:10:40;;;;;;;;;;;;;;;10.26;98.89;99158.47;4193662;28;20015;-67
2023/10/28 02:12:42;;;;;;;;;;;;;;;10.21;99.09;99158.28;4192903;28;20019;-67
2023/10/28 02:14:46;;;;;;;;;;;;;;;10.26;99.07;99164.66;4192405;28;20015;-67
2023/10/28 02:16:47;;;;;;;;;;;;;;;10.26;99.04;99167.38;4192490;28;20024;-67
2023/10/28 02:18:50;;;;;;;;;;;;;;;10.26;99.11;99177.34;4192781;28;20023;-67
2023/10/28 02:20:54;;;;;;;;;;;;;;;10.25;98.98;99173.81;4192565;28;20301;-67
2023/10/28 02:22:55;;;;;;;;;;;;;;;10.25;99.33;99171.13;4183076;28;20441;-67
2023/10/28 02:24:57;;;;;;;;;;;;;;;10.24;99.27;99182.94;4193176;28;20015;-67
2023/10/28 02:27:00;;;;;;;;;;;;;;;10.24;98.83;99172.16;4191198;28;19924;-67
2023/10/28 02:29:02;;;;;;;;;;;;;;;10.24;99.08;99168.66;4192850;28;20446;-67
2023/10/28 02:31:08;;;;;;;;;;;;;;;10.23;99.11;99167.78;4190245;28;20015;-67
2023/10/28 02:33:10;;;;;;;;;;;;;;;10.24;99.27;99171.34;4191681;28;19928;-67
2023/10/28 02:35:13;;;;;;;;;;;;;;;10.25;99.15;99183.78;4193791;28;20125;-67
2023/10/28 02:37:15;;;;;;;;;;;;;;;10.24;99.18;99182.94;4195879;28;20015;-68
2023/10/28 02:39:17;;;;;;;;;;;;;;;10.24;99.44;99182.13;4195834;28;20027;-68
2023/10/28 02:41:19;;;;;;;;;;;;;;;10.23;99.34;99181.28;4195935;28;20036;-67
2023/10/28 02:43:22;;;;;;;;;;;;;;;10.22;99.29;99184.19;4195027;28;20027;-68
2023/10/28 02:45:25;;;;;;;;;;;;;;;10.22;99.27;99179.66;4190188;28;20007;-66
2023/10/28 02:47:26;;;;;;;;;;;;;;;10.22;99.49;99176.94;4196076;28;19935;-67
2023/10/28 02:49:29;;;;;;;;;;;;;;;10.23;99.31;99181.28;4193186;28;20015;-67
2023/10/28 02:51:31;;;;;;;;;;;;;;;10.22;99.12;99187.75;4195552;28;20024;-67
2023/10/28 02:53:34;;;;;;;;;;;;;;;10.22;99.35;99197.69;4196762;28;19936;-67
2023/10/28 02:55:36;;;;;;;;;;;;;;;10.22;99.45;99189.59;4195567;28;20904;-67
2023/10/28 02:57:38;;;;;;;;;;;;;;;10.23;99.35;99191.25;4194905;28;20024;-67
2023/10/28 02:59:42;;;;;;;;;;;;;;;10.22;99.54;99187.75;4195800;28;20095;-67
2023/10/28 03:01:43;;;;;;;;;;;;;;;10.21;99.36;99188.78;4195576;28;20022;-67
2023/10/28 03:03:46;;;;;;;;;;;;;;;10.21;99.34;99188.78;4195204;28;20549;-67
2023/10/28 03:05:49;;;;;;;;;;;;;;;10.22;99.08;99192.28;4195083;28;20015;-67
2023/10/28 03:07:51;;;;;;;;;;;;;;;10.22;99.32;99192.28;4194339;28;20566;-67
2023/10/28 03:09:53;;;;;;;;;;;;;;;10.21;99.35;99194.16;4194538;28;20578;-67
2023/10/28 03:11:57;;;;;;;;;;;;;;;10.21;99.34;99190.66;4193984;28;20023;-67
2023/10/28 03:13:59;;;;;;;;;;;;;;;10.21;99.32;99190.66;4195854;28;20016;-67
2023/10/28 03:16:03;;;;;;;;;;;;;;;10.21;99.49;99190.66;4195688;28;20327;-69
2023/10/28 03:18:07;;;;;;;;;;;;;;;10.21;99.24;99201.44;4194799;28;19997;-67
2023/10/28 03:20:11;;;;;;;;;;;;;;;10.20;99.48;99192.53;4194774;28;20019;-67
2023/10/28 03:22:13;;;;;;;;;;;;;;;10.20;99.33;99194.38;4193554;28;20373;-67
2023/10/28 03:24:16;;;;;;;;;;;;;;;10.20;99.60;99205.19;4195820;28;20450;-67
2023/10/28 03:26:18;;;;;;;;;;;;;;;10.21;99.78;99204.16;4194445;28;20051;-66
2023/10/28 03:28:21;;;;;;;;;;;;;;;10.21;99.53;99202.25;4194821;28;19932;-66
2023/10/28 03:30:23;;;;;;;;;;;;;;;10.21;99.45;99196.06;4192456;28;20023;-69
2023/10/28 03:32:26;;;;;;;;;;;;;;;10.20;99.61;99205.19;4193535;28;19963;-68
2023/10/28 03:34:28;;;;;;;;;;;;;;;10.19;99.52;99209.75;4195948;28;19963;-66
2023/10/28 03:36:30;;;;;;;;;;;;;;;10.19;99.91;99215.16;4195064;28;19932;-69
2023/10/28 03:38:33;;;;;;;;;;;;;;;10.20;99.99;99213.28;4197195;28;20011;-66
2023/10/28 03:40:37;;;;;;;;;;;;;;;10.20;99.63;99210.56;4195271;28;20015;-69
2023/10/28 03:42:39;;;;;;;;;;;;;;;10.20;99.76;99210.56;4186450;28;20028;-66
2023/10/28 03:44:41;;;;;;;;;;;;;;;10.20;99.56;99210.56;4195227;28;20378;-66
2023/10/28 03:46:43;;;;;;;;;;;;;;;10.21;99.61;99217.63;4187553;28;20019;-66
2023/10/28 03:48:47;;;;;;;;;;;;;;;10.20;99.69;99219.50;4194443;28;20508;-67
2023/10/28 03:50:56;;;;;;;;;;;;;;;10.20;99.55;99213.28;4194367;28;20015;-67
2023/10/28 03:52:58;;;;;;;;;;;;;;;10.20;99.56;99214.13;4193996;28;20003;-67
2023/10/28 03:55:00;;;;;;;;;;;;;;;10.21;99.28;99214.94;4193416;28;20451;-68
2023/10/28 03:57:02;;;;;;;;;;;;;;;10.20;99.16;99218.66;4194134;28;20026;-67
2023/10/28 03:59:04;;;;;;;;;;;;;;;10.20;99.16;99218.66;4196021;28;20018;-67
2023/10/28 04:01:06;;;;;;;;;;;;;;;10.21;99.10;99223.03;4191721;28;20015;-68
2023/10/28 04:03:08;;;;;;;;;;;;;;;10.19;99.31;99219.72;4193412;28;20023;-67
2023/10/28 04:05:10;;;;;;;;;;;;;;;10.18;99.16;99218.88;4194206;28;20020;-68
2023/10/28 04:07:13;;;;;;;;;;;;;;;10.18;99.05;99228.84;4192244;28;20003;-67
2023/10/28 04:09:15;;;;;;;;;;;;;;;10.17;99.52;99229.88;4194359;28;20629;-67
2023/10/28 04:11:17;;;;;;;;;;;;;;;10.17;99.37;99232.56;4194511;28;20043;-67
2023/10/28 04:13:19;;;;;;;;;;;;;;;10.16;99.62;99226.38;4194082;28;20668;-66
2023/10/28 04:15:21;;;;;;;;;;;;;;;10.16;99.94;99226.38;4194792;28;20027;-69
2023/10/28 04:17:24;;;;;;;;;;;;;;;10.16;99.97;99229.06;4194156;28;20056;-67
2023/10/28 04:19:26;;;;;;;;;;;;;;;10.15;99.89;99231.97;4193575;28;20019;-66
2023/10/28 04:21:30;;;;;;;;;;;;;;;10.16;100.00;99237.16;4195026;28;20026;-68
2023/10/28 04:23:32;;;;;;;;;;;;;;;10.15;100.00;99240.06;4194252;28;20070;-71
2023/10/28 04:25:34;;;;;;;;;;;;;;;10.15;100.00;99232.78;4194332;28;20028;-66
2023/10/28 04:27:36;;;;;;;;;;;;;;;10.16;99.81;99239.03;4193503;28;20008;-68
2023/10/28 04:29:38;;;;;;;;;;;;;;;10.14;99.82;99244.63;4194119;28;19974;-67
2023/10/28 04:31:40;;;;;;;;;;;;;;;10.16;100.00;99245.25;4193100;28;20026;-66
2023/10/28 04:33:42;;;;;;;;;;;;;;;10.16;100.00;99252.53;4188928;28;20019;-67
2023/10/28 04:35:44;;;;;;;;;;;;;;;10.16;100.00;99257.91;4189286;28;20035;-67
2023/10/28 04:37:47;;;;;;;;;;;;;;;10.15;99.93;99257.06;4194441;28;20031;-66
2023/10/28 04:39:51;;;;;;;;;;;;;;;10.14;99.91;99252.72;4193759;28;20610;-68
2023/10/28 04:41:53;;;;;;;;;;;;;;;10.14;99.71;99243.78;4193391;28;20396;-67
2023/10/28 04:43:55;;;;;;;;;;;;;;;10.14;99.60;99243.78;4170991;28;20475;-66
2023/10/28 04:45:57;;;;;;;;;;;;;;;10.14;99.52;99246.50;4194307;28;20335;-66
2023/10/28 04:47:58;;;;;;;;;;;;;;;10.14;99.59;99243.78;4190379;28;20019;-67
2023/10/28 04:50:02;;;;;;;;;;;;;;;10.13;99.24;99248.38;4191152;28;19924;-70
2023/10/28 04:52:04;;;;;;;;;;;;;;;10.13;99.38;99250.25;4190801;28;20019;-67
2023/10/28 04:54:09;;;;;;;;;;;;;;;10.13;99.44;99255.63;4192313;28;20365;-68
2023/10/28 04:56:12;;;;;;;;;;;;;;;10.13;99.57;99264.56;4192682;28;19924;-67
2023/10/28 04:58:14;;;;;;;;;;;;;;;10.13;99.54;99252.94;4193322;28;20174;-67
2023/10/28 05:00:16;;;;;;;;;;;;;;;10.12;99.49;99259.38;4189870;28;19979;-67
2023/10/28 05:02:20;;;;;;;;;;;;;;;10.12;99.56;99254.78;4188813;28;20296;-67
2023/10/28 05:04:24;;;;;;;;;;;;;;;10.12;99.54;99259.38;4192720;28;20079;-68
2023/10/28 05:06:26;;;;;;;;;;;;;;;10.10;99.50;99263.09;4193037;28;20015;-67
2023/10/28 05:08:28;;;;;;;;;;;;;;;10.11;99.51;99272.03;4193074;28;20007;-67
2023/10/28 05:10:32;;;;;;;;;;;;;;;10.09;99.33;99266.84;4191472;28;20019;-67
2023/10/28 05:12:34;;;;;;;;;;;;;;;10.10;99.35;99275.75;4191834;28;20023;-66
2023/10/28 05:14:36;;;;;;;;;;;;;;;10.08;99.48;99283.25;4193781;28;20007;-68
2023/10/28 05:16:38;;;;;;;;;;;;;;;10.08;99.17;99275.97;4194623;28;20067;-68
2023/10/28 05:18:40;;;;;;;;;;;;;;;10.08;99.32;99277.84;4192209;28;19963;-67
2023/10/28 05:20:43;;;;;;;;;;;;;;;10.08;99.30;99277.84;4190099;28;20023;-68
2023/10/28 05:22:44;;;;;;;;;;;;;;;10.07;99.27;99279.69;4189784;28;20133;-68
2023/10/28 05:24:46;;;;;;;;;;;;;;;10.08;99.37;99285.94;4192073;28;20033;-68
2023/10/28 05:26:49;;;;;;;;;;;;;;;10.06;99.30;99288.84;4192065;28;20015;-71
2023/10/28 05:28:54;;;;;;;;;;;;;;;10.07;99.58;99286.97;4192213;28;20016;-67
2023/10/28 05:30:57;;;;;;;;;;;;;;;10.07;99.57;99287.78;4192957;28;20394;-71
2023/10/28 05:33:04;;;;;;;;;;;;;;;10.06;99.41;99279.91;4191950;28;19929;-68
2023/10/28 05:35:11;;;;;;;;;;;;;;;10.07;99.37;99290.50;4194786;28;19978;-69
2023/10/28 05:37:16;;;;;;;;;;;;;;;10.06;99.30;99288.00;4193461;28;19932;-69
2023/10/28 05:39:21;;;;;;;;;;;;;;;10.06;99.13;99285.31;4191971;28;19928;-69
2023/10/28 05:41:23;;;;;;;;;;;;;;;10.06;99.43;99286.16;4193186;28;20023;-68
2023/10/28 05:43:30;;;;;;;;;;;;;;;10.05;99.33;99289.06;4194728;28;19931;-69
2023/10/28 05:45:33;;;;;;;;;;;;;;;10.05;99.37;99303.38;4191647;28;20036;-68
2023/10/28 05:47:35;;;;;;;;;;;;;;;10.05;99.06;99305.25;4193739;28;20018;-70
2023/10/28 05:49:37;;;;;;;;;;;;;;;10.04;99.27;99307.09;4193398;28;20015;-70
2023/10/28 05:51:39;;;;;;;;;;;;;;;10.04;98.90;99315.19;4194256;28;20387;-70
2023/10/28 05:53:44;;;;;;;;;;;;;;;10.04;99.05;99323.28;4193187;28;20043;-69
2023/10/28 05:55:49;;;;;;;;;;;;;;;10.03;99.11;99316.25;4193846;28;20352;-69
2023/10/28 05:57:51;;;;;;;;;;;;;;;10.03;98.92;99327.03;4193688;28;20489;-69
2023/10/28 05:59:54;;;;;;;;;;;;;;;10.04;98.96;99334.06;4192713;28;20370;-69
2023/10/28 06:01:56;;;;;;;;;;;;;;;10.03;99.06;99329.72;4193336;28;20035;-69
2023/10/28 06:03:59;;;;;;;;;;;;;;;10.02;98.85;99333.44;4193490;28;20026;-70
2023/10/28 06:06:01;;;;;;;;;;;;;;;10.03;99.14;99336.97;4192092;28;20638;-70
2023/10/28 06:08:03;;;;;;;;;;;;;;;10.02;98.93;99338.84;4194962;28;20015;-70
2023/10/28 06:10:07;;;;;;;;;;;;;;;10.03;99.21;99340.53;4193689;28;19960;-70
2023/10/28 06:12:13;;;;;;;;;;;;;;;10.01;98.88;99345.28;4193325;28;20313;-69
2023/10/28 06:14:19;;;;;;;;;;;;;;;10.00;98.73;99340.94;4193522;28;20045;-70
2023/10/28 06:16:22;;;;;;;;;;;;;;;10.01;99.01;99347.16;4194878;28;20371;-70
2023/10/28 06:18:27;;;;;;;;;;;;;;;10.02;99.26;99352.34;4176781;28;19925;-70
2023/10/28 06:20:28;;;;;;;;;;;;;;;10.00;99.34;99351.72;4193533;28;20712;-70
2023/10/28 06:22:32;;;;;;;;;;;;;;;10.02;99.00;99360.44;4193321;28;19990;-70
2023/10/28 06:24:34;;;;;;;;;;;;;;;10.02;99.09;99357.72;4193514;28;19933;-70
2023/10/28 06:26:36;;;;;;;;;;;;;;;10.02;99.07;99363.13;4192866;28;20019;-70
2023/10/28 06:28:38;;;;;;;;;;;;;;;10.01;99.19;99360.63;4191443;28;20516;-68
2023/10/28 06:30:46;;;;;;;;;;;;;;;10.01;99.01;99361.44;4191356;28;20015;-68
2023/10/28 06:32:48;;;;;;;;;;;;;;;10.01;99.07;99366.84;4190759;28;19967;-70
2023/10/28 06:34:50;;;;;;;;;;;;;;;10.01;99.10;99366.84;4192345;28;20012;-66
2023/10/28 06:36:52;;;;;;;;;;;;;;;10.01;99.37;99372.25;4193310;28;20066;-67
2023/10/28 06:38:55;;;;;;;;;;;;;;;10.02;99.36;99367.69;4192509;28;19959;-68
2023/10/28 06:40:58;;;;;;;;;;;;;;;10.01;99.51;99380.34;4193001;28;20019;-67
2023/10/28 06:42:59;;;;;;;;;;;;;;;10.02;99.58;99381.19;4194361;28;19931;-67
2023/10/28 06:45:02;;;;;;;;;;;;;;;10.03;99.46;99385.53;4193768;28;20403;-67
2023/10/28 06:47:04;;;;;;;;;;;;;;;10.02;99.42;99397.38;4194008;28;20028;-67
2023/10/28 06:49:08;;;;;;;;;;;;;;;10.02;99.30;99392.78;4191066;28;19960;-67
2023/10/28 06:51:12;;;;;;;;;;;;;;;10.01;99.49;99390.31;4191116;28;20028;-67
2023/10/28 06:53:17;;;;;;;;;;;;;;;10.03;99.25;99393.63;4192934;28;20429;-68
2023/10/28 06:55:19;;;;;;;;;;;;;;;10.02;99.34;99394.66;4192828;28;20020;-68
2023/10/28 06:57:22;;;;;;;;;;;;;;;10.04;99.13;99403.38;4194661;28;19996;-68
2023/10/28 06:59:26;;;;;;;;;;;;;;;10.04;99.35;99411.47;4192595;28;20027;-68
2023/10/28 07:01:27;;;;;;;;;;;;;;;10.04;98.95;99412.28;4186131;28;20379;-67
2023/10/28 07:03:30;;;;;;;;;;;;;;;10.03;99.30;99418.75;4193087;28;20024;-67
2023/10/28 07:05:34;;;;;;;;;;;;;;;10.03;99.21;99412.50;4194962;28;20015;-70
2023/10/28 07:07:35;;;;;;;;;;;;;;;10.03;99.20;99424.13;4194461;28;19975;-69
2023/10/28 07:09:37;;;;;;;;;;;;;;;9.98;99.26;99421.19;4190932;28;19929;-70
2023/10/28 07:11:39;;;;;;;;;;;;;;;10.04;99.24;99423.09;4194497;28;19956;-69
2023/10/28 07:13:41;;;;;;;;;;;;;;;10.05;99.27;99434.72;4194917;28;20015;-69
2023/10/28 07:15:44;;;;;;;;;;;;;;;10.06;99.16;99434.53;4194246;28;20027;-70
2023/10/28 07:17:45;;;;;;;;;;;;;;;10.06;99.03;99433.66;4194684;28;20430;-67
2023/10/28 07:19:47;;;;;;;;;;;;;;;10.06;99.30;99445.31;4193483;28;20028;-69
2023/10/28 07:21:49;;;;;;;;;;;;;;;10.05;99.23;99440.13;4195095;28;19998;-69
2023/10/28 07:23:51;;;;;;;;;;;;;;;10.05;99.43;99443.63;4195824;28;19928;-70
2023/10/28 07:25:54;;;;;;;;;;;;;;;10.05;99.26;99449.03;4198019;28;20421;-70
2023/10/28 07:27:56;;;;;;;;;;;;;;;10.05;99.18;99443.63;4197340;28;20217;-70
2023/10/28 07:29:59;;;;;;;;;;;;;;;10.05;99.41;99451.72;4196263;28;20027;-70
2023/10/28 07:32:03;;;;;;;;;;;;;;;10.07;99.34;99452.34;4194791;28;20019;-70
2023/10/28 07:34:06;;;;;;;;;;;;;;;10.08;99.45;99453.19;4197148;28;19925;-69
2023/10/28 07:36:08;;;;;;;;;;;;;;;10.09;99.34;99457.53;4196497;28;20011;-69
2023/10/28 07:38:12;;;;;;;;;;;;;;;10.09;99.56;99457.53;4196680;28;19956;-69
2023/10/28 07:40:15;;;;;;;;;;;;;;;10.11;99.65;99463.56;4193009;28;19996;-70
2023/10/28 07:42:17;;;;;;;;;;;;;;;10.12;100.00;99459.81;4194644;28;20024;-69
2023/10/28 07:44:19;;;;;;;;;;;;;;;10.13;100.00;99464.19;4195395;28;20020;-70
2023/10/28 07:46:21;;;;;;;;;;;;;;;10.14;100.00;99460.47;4194394;28;19991;-69
2023/10/28 07:48:23;;;;;;;;;;;;;;;10.16;100.00;99466.47;4195165;28;20024;-70
2023/10/28 07:50:25;;;;;;;;;;;;;;;10.17;100.00;99460.06;4196539;28;20553;-70
2023/10/28 07:52:27;;;;;;;;;;;;;;;10.18;100.00;99467.09;4196222;28;20027;-70
2023/10/28 07:54:30;;;;;;;;;;;;;;;10.21;99.76;99468.56;4194450;28;20390;-70
2023/10/28 07:56:32;;;;;;;;;;;;;;;10.22;99.66;99467.50;4196445;28;20007;-67
2023/10/28 07:58:35;;;;;;;;;;;;;;;10.24;99.65;99477.06;4196104;28;20032;-70
2023/10/28 08:00:38;;;;;;;;;;;;;;;10.26;99.86;99482.25;4195290;28;20024;-69
2023/10/28 08:02:43;;;;;;;;;;;;;;;10.26;99.69;99488.47;4194531;28;20027;-70
2023/10/28 08:04:46;;;;;;;;;;;;;;;10.22;99.68;99473.75;4195184;28;20019;-70
2023/10/28 08:06:48;;;;;;;;;;;;;;;10.27;99.72;99484.75;4197160;28;20027;-70
2023/10/28 08:08:52;;;;;;;;;;;;;;;10.27;99.84;99490.16;4214447;28;19956;-70
2023/10/28 08:10:56;;;;;;;;;;;;;;;10.29;100.00;99495.34;4197171;28;19968;-70
2023/10/28 08:12:59;;;;;;;;;;;;;;;10.31;100.00;99495.13;4198183;28;19992;-69
2023/10/28 08:15:01;;;;;;;;;;;;;;;10.32;100.00;99496.81;4199278;28;20513;-69
2023/10/28 08:17:05;;;;;;;;;;;;;;;10.32;100.00;99497.63;4190824;28;20031;-68
2023/10/28 08:19:08;;;;;;;;;;;;;;;10.34;100.00;99500.97;4197237;28;19980;-68
2023/10/28 08:21:10;;;;;;;;;;;;;;;10.35;100.00;99507.22;4197045;28;19956;-69
2023/10/28 08:23:12;;;;;;;;;;;;;;;10.36;100.00;99511.56;4197810;28;20050;-70
2023/10/28 08:25:16;;;;;;;;;;;;;;;10.37;100.00;99511.38;4197626;28;19970;-68
2023/10/28 08:27:19;;;;;;;;;;;;;;;10.38;100.00;99507.63;4196133;28;20430;-68
2023/10/28 08:29:21;;;;;;;;;;;;;;;10.39;100.00;99517.41;4196614;28;19963;-70
2023/10/28 08:31:23;;;;;;;;;;;;;;;10.39;100.00;99513.84;4195846;28;20011;-70
2023/10/28 08:33:24;;;;;;;;;;;;;;;10.40;100.00;99518.22;4193108;28;20454;-70
2023/10/28 08:35:28;;;;;;;;;;;;;;;10.40;100.00;99518.22;4196373;28;19935;-70
2023/10/28 08:37:31;;;;;;;;;;;;;;;10.42;100.00;99526.94;4196597;28;20036;-70
2023/10/28 08:39:33;;;;;;;;;;;;;;;10.44;100.00;99527.59;4196105;28;20027;-70
2023/10/28 08:41:35;;;;;;;;;;;;;;;10.44;100.00;99527.59;4194522;28;20019;-70
2023/10/28 08:43:39;;;;;;;;;;;;;;;10.45;100.00;99526.53;4196251;28;20031;-68
2023/10/28 08:45:41;;;;;;;;;;;;;;;10.45;100.00;99527.38;4196872;28;20023;-69
2023/10/28 08:47:43;;;;;;;;;;;;;;;10.46;100.00;99537.13;4195260;28;20015;-69
2023/10/28 08:49:45;;;;;;;;;;;;;;;10.46;100.00;99539.81;4194252;28;19928;-69
2023/10/28 08:51:48;;;;;;;;;;;;;;;10.48;100.00;99539.63;4194306;28;20025;-68
2023/10/28 08:53:50;;;;;;;;;;;;;;;10.49;99.97;99544.00;4186684;28;19928;-68
2023/10/28 08:55:51;;;;;;;;;;;;;;;10.51;100.00;99550.00;4195766;28;20495;-68
2023/10/28 08:57:54;;;;;;;;;;;;;;;10.51;100.00;99550.00;4194692;28;20051;-68
2023/10/28 08:59:57;;;;;;;;;;;;;;;10.52;100.00;99546.28;4211394;28;20390;-68
2023/10/28 09:02:00;;;;;;;;;;;;;;;10.52;100.00;99545.47;4193192;28;20010;-68
2023/10/28 09:04:04;;;;;;;;;;;;;;;10.53;100.00;99550.66;4194729;28;20026;-68
2023/10/28 09:06:06;;;;;;;;;;;;;;;10.55;100.00;99550.41;4193806;28;20011;-68
2023/10/28 09:08:08;;;;;;;;;;;;;;;10.56;100.00;99552.09;4194629;28;20027;-68
2023/10/28 09:10:11;;;;;;;;;;;;;;;10.56;100.00;99563.72;4193512;28;20023;-69
2023/10/28 09:12:13;;;;;;;;;;;;;;;10.57;100.00;99559.16;4195702;28;19966;-69
2023/10/28 09:14:15;;;;;;;;;;;;;;;10.58;100.00;99563.50;4187895;28;20019;-69
2023/10/28 09:16:19;;;;;;;;;;;;;;;10.58;99.82;99571.59;4192644;28;20383;-69
2023/10/28 09:18:21;;;;;;;;;;;;;;;10.60;99.78;99573.06;4194891;28;19972;-69
2023/10/28 09:20:23;;;;;;;;;;;;;;;10.62;99.90;99578.25;4186935;28;20292;-68
2023/10/28 09:22:25;;;;;;;;;;;;;;;10.63;100.00;99579.94;4194247;28;20023;-69
2023/10/28 09:24:27;;;;;;;;;;;;;;;10.63;100.00;99591.56;4194064;28;19996;-68
2023/10/28 09:26:29;;;;;;;;;;;;;;;10.66;100.00;99592.19;4194560;28;19987;-69
2023/10/28 09:28:31;;;;;;;;;;;;;;;10.65;100.00;99594.06;4193711;28;20283;-69
2023/10/28 09:30:43;;;;;;;;;;;;;;;10.67;100.00;99599.25;4192940;28;20019;-69
2023/10/28 09:32:46;;;;;;;;;;;;;;;10.67;100.00;99605.47;4193720;28;20023;-69
2023/10/28 09:34:48;;;;;;;;;;;;;;;10.68;99.99;99606.31;4194115;28;20341;-69
2023/10/28 09:36:50;;;;;;;;;;;;;;;10.69;99.98;99608.81;4193701;28;20430;-69
2023/10/28 09:38:53;;;;;;;;;;;;;;;10.70;99.72;99605.06;4193875;28;20078;-68
2023/10/28 09:40:56;;;;;;;;;;;;;;;10.71;99.60;99605.91;4194023;28;20023;-68
2023/10/28 09:42:59;;;;;;;;;;;;;;;10.71;99.81;99598.63;4187574;28;19928;-69
2023/10/28 09:45:05;;;;;;;;;;;;;;;10.73;100.00;99596.56;4192842;28;19999;-69
2023/10/28 09:47:08;;;;;;;;;;;;;;;10.73;100.00;99596.56;4193133;28;20015;-69
2023/10/28 09:49:11;;;;;;;;;;;;;;;10.74;100.00;99595.53;4195112;28;20036;-68
2023/10/28 09:51:13;;;;;;;;;;;;;;;10.75;100.00;99591.81;4193162;28;19925;-68
2023/10/28 09:53:18;;;;;;;;;;;;;;;10.77;100.00;99607.78;4194025;28;20024;-68
2023/10/28 09:55:23;;;;;;;;;;;;;;;10.78;100.00;99601.34;4193671;28;20026;-68
2023/10/28 09:57:25;;;;;;;;;;;;;;;10.79;100.00;99600.31;4194837;28;19947;-69
2023/10/28 09:59:27;;;;;;;;;;;;;;;10.78;100.00;99596.78;4193876;28;20454;-69
2023/10/28 10:01:31;;;;;;;;;;;;;;;10.79;100.00;99601.13;4192710;28;20035;-69
2023/10/28 10:03:36;;;;;;;;;;;;;;;10.80;100.00;99599.28;4194240;28;20645;-68
2023/10/28 10:05:40;;;;;;;;;;;;;;;10.81;100.00;99601.78;4195067;28;20019;-69
2023/10/28 10:07:42;;;;;;;;;;;;;;;10.83;100.00;99604.28;4185908;28;20379;-69
2023/10/28 10:09:48;;;;;;;;;;;;;;;10.85;100.00;99604.06;4176388;28;19929;-69
2023/10/28 10:11:50;;;;;;;;;;;;;;;10.86;99.84;99598.47;4193913;28;20007;-69
2023/10/28 10:13:52;;;;;;;;;;;;;;;10.88;99.27;99601.78;4192274;28;20011;-69
2023/10/28 10:15:55;;;;;;;;;;;;;;;10.89;98.72;99600.72;4193664;28;20032;-69
2023/10/28 10:18:04;;;;;;;;;;;;;;;10.91;98.19;99595.97;4193426;28;19925;-69
2023/10/28 10:20:07;;;;;;;;;;;;;;;10.94;97.14;99589.28;4194298;28;19967;-68
2023/10/28 10:22:10;;;;;;;;;;;;;;;10.99;96.49;99594.94;4193496;28;20015;-69
2023/10/28 10:24:12;;;;;;;;;;;;;;;11.04;96.09;99594.31;4194015;28;20023;-69
2023/10/28 10:26:20;;;;;;;;;;;;;;;11.10;95.25;99598.88;4192309;28;19925;-69
2023/10/28 10:28:23;;;;;;;;;;;;;;;11.16;94.86;99598.03;4193108;28;20019;-69
2023/10/28 10:30:27;;;;;;;;;;;;;;;11.25;93.97;99595.94;4184726;28;20012;-68
2023/10/28 10:32:29;;;;;;;;;;;;;;;11.33;93.05;99601.97;4207820;28;20394;-68
2023/10/28 10:34:31;;;;;;;;;;;;;;;11.42;92.07;99607.16;4192679;28;20011;-68
2023/10/28 10:36:36;;;;;;;;;;;;;;;11.49;91.54;99594.47;4192995;28;20023;-68
2023/10/28 10:38:40;;;;;;;;;;;;;;;11.58;90.70;99601.28;4193482;28;20478;-68